Terminal Aerodrome Forecast
Issued by NWS Quad Cities IA IL

Home | Current Version | Previous Version | Text Only | Print | Product List | Glossary Off
Versions: 1 2 3 4 5 6 7 8 9 10 11 12 13 14 15 16 17 18 19 20 21 22 23 24 25 26 27 28 29 30 31 32 33 34

000
FTUS43 KDVN 062259 AAA
TAFDBQ
TAF AMD
KDBQ 062259Z 0623/0718 17015G24KT P6SM VCSH BKN050
      TEMPO 0623/0701 24016G25KT 5SM -SHRA BKN035
     FM070200 16011KT P6SM BKN050
     FM071500 18017G23KT P6SM OVC050=

USA.gov is the U.S. government's official web portal to all federal, state and local government web resources and services.